createdAt,value
2023-05-19T00:00:57.961Z,100166.97
2023-05-19T00:01:59.820Z,100166.56
2023-05-19T00:03:01.640Z,100171.69
2023-05-19T00:04:03.770Z,100164.66
2023-05-19T00:05:05.866Z,100163.06
2023-05-19T00:06:08.441Z,100167.16
2023-05-19T00:07:11.412Z,100157.34
2023-05-19T00:08:17.000Z,100159.59
2023-05-19T00:09:18.760Z,100160.63
2023-05-19T00:10:20.704Z,100159.28
2023-05-19T00:11:22.561Z,100157.78
2023-05-19T00:12:24.778Z,100150.97
2023-05-19T00:13:27.341Z,100153.38
2023-05-19T00:14:29.358Z,100150.75
2023-05-19T00:15:31.348Z,100152.44
2023-05-19T00:16:34.310Z,100149.81
2023-05-19T00:17:36.107Z,100150.13
2023-05-19T00:18:37.773Z,100145.81
2023-05-19T00:19:39.396Z,100151.19
2023-05-19T00:20:41.014Z,100144.38
2023-05-19T00:21:42.678Z,100147.50
2023-05-19T00:22:44.294Z,100145.59
2023-05-19T00:23:46.110Z,100150.13
2023-05-19T00:24:47.679Z,100148.13
2023-05-19T00:25:49.261Z,100148.78
2023-05-19T00:26:50.908Z,100152.88
2023-05-19T00:27:52.556Z,100152.34
2023-05-19T00:28:54.518Z,100149.50
2023-05-19T00:29:56.131Z,100145.31
2023-05-19T00:30:57.746Z,100150.66
2023-05-19T00:31:59.358Z,100153.63
2023-05-19T00:33:01.237Z,100144.69
2023-05-19T00:34:03.550Z,100152.34
2023-05-19T00:35:05.577Z,100144.69
2023-05-19T00:36:07.736Z,100142.88
2023-05-19T00:37:09.333Z,100141.41
2023-05-19T00:38:10.996Z,100135.44
2023-05-19T00:39:13.081Z,100137.22
2023-05-19T00:40:15.221Z,100145.63
2023-05-19T00:41:16.866Z,100144.91
2023-05-19T00:42:18.533Z,100136.25
2023-05-19T00:43:20.138Z,100132.47
2023-05-19T00:44:21.684Z,100134.88
2023-05-19T00:45:24.396Z,100135.00
2023-05-19T00:46:26.049Z,100134.38
2023-05-19T00:47:27.749Z,100135.34
2023-05-19T00:48:29.488Z,100130.50
2023-05-19T00:49:31.164Z,100131.00
2023-05-19T00:50:33.189Z,100132.06
2023-05-19T00:51:35.900Z,100131.84
2023-05-19T00:52:37.953Z,100131.44
2023-05-19T00:53:39.542Z,100131.34
2023-05-19T00:54:41.245Z,100132.72
2023-05-19T00:55:43.228Z,100129.84
2023-05-19T00:56:46.058Z,100133.44
2023-05-19T00:57:49.556Z,100130.69
2023-05-19T00:58:51.852Z,100135.13
2023-05-19T00:59:53.595Z,100125.56
2023-05-19T01:00:57.624Z,100121.97
2023-05-19T01:01:59.252Z,100129.22
2023-05-19T01:03:01.345Z,100128.91
2023-05-19T01:04:03.195Z,100126.28
2023-05-19T01:05:05.662Z,100124.09
2023-05-19T01:06:07.513Z,100122.28
2023-05-19T01:07:09.605Z,100118.94
2023-05-19T01:08:11.392Z,100118.13
2023-05-19T01:09:13.065Z,100121.69
2023-05-19T01:10:14.662Z,100118.94
2023-05-19T01:11:16.228Z,100117.16
2023-05-19T01:12:17.949Z,100118.22
2023-05-19T01:13:19.593Z,100119.16
2023-05-19T01:14:21.424Z,100119.16
2023-05-19T01:15:25.590Z,100117.34
2023-05-19T01:16:59.558Z,100121.47
2023-05-19T01:18:18.662Z,100117.78
2023-05-19T01:19:44.466Z,100109.56
2023-05-19T01:20:54.296Z,100115.47
2023-05-19T01:22:01.762Z,100119.66
2023-05-19T01:23:12.009Z,100119.25
2023-05-19T01:24:40.966Z,100119.38
2023-05-19T01:25:45.358Z,100117.16
2023-05-19T01:27:15.310Z,100121.19
2023-05-19T01:28:43.620Z,100107.72
2023-05-19T01:30:13.914Z,100110.75
2023-05-19T01:31:16.922Z,100108.22
2023-05-19T01:32:20.830Z,100114.00
2023-05-19T01:33:23.760Z,100116.75
2023-05-19T01:34:27.020Z,100116.00
2023-05-19T01:35:30.628Z,100111.81
2023-05-19T01:36:33.641Z,100112.13
2023-05-19T01:37:37.357Z,100117.16
2023-05-19T01:38:39.584Z,100108.25
2023-05-19T01:39:42.741Z,100110.56
2023-05-19T01:40:45.940Z,100104.34
2023-05-19T01:41:48.614Z,100099.41
2023-05-19T01:42:54.686Z,100111.38
2023-05-19T01:43:58.359Z,100093.31
2023-05-19T01:45:00.403Z,100101.00
2023-05-19T01:46:03.202Z,100105.31
2023-05-19T01:47:05.378Z,100095.41
2023-05-19T01:48:10.668Z,100104.22
2023-05-19T01:49:13.767Z,100097.13
2023-05-19T01:50:15.572Z,100104.78
2023-05-19T01:51:17.924Z,100100.16
2023-05-19T01:52:19.476Z,100098.97
2023-05-19T01:53:21.062Z,100099.72
2023-05-19T01:54:23.013Z,100098.13
2023-05-19T01:55:24.862Z,100104.47
2023-05-19T01:57:00.238Z,100089.97
2023-05-19T01:58:20.005Z,100102.78
2023-05-19T01:59:32.391Z,100100.47
2023-05-19T02:00:42.884Z,100089.84
2023-05-19T02:01:57.970Z,100087.97
2023-05-19T02:03:14.528Z,100094.91
2023-05-19T02:04:59.841Z,100087.19
2023-05-19T02:06:22.459Z,100090.59
2023-05-19T02:07:35.441Z,100089.75
2023-05-19T02:08:44.169Z,100091.41
2023-05-19T02:10:14.989Z,100095.94
2023-05-19T02:11:41.960Z,100094.25
2023-05-19T02:12:45.788Z,100093.41
2023-05-19T02:13:50.285Z,100079.53
2023-05-19T02:15:03.544Z,100093.31
2023-05-19T02:16:06.194Z,100088.06
2023-05-19T02:17:08.720Z,100091.31
2023-05-19T02:18:11.313Z,100093.00
2023-05-19T02:19:31.206Z,100088.56
2023-05-19T02:20:33.079Z,100080.91
2023-05-19T02:21:34.959Z,100083.03
2023-05-19T02:22:36.888Z,100092.59
2023-05-19T02:23:38.533Z,100077.78
2023-05-19T02:24:40.124Z,100085.97
2023-05-19T02:25:41.869Z,100083.97
2023-05-19T02:26:43.462Z,100082.38
2023-05-19T02:27:45.047Z,100082.38
2023-05-19T02:28:46.671Z,100077.84
2023-05-19T02:29:48.250Z,100080.41
2023-05-19T02:30:49.912Z,100078.72
2023-05-19T02:31:51.590Z,100081.13
2023-05-19T02:32:54.020Z,100083.03
2023-05-19T02:33:55.666Z,100079.75
2023-05-19T02:34:57.247Z,100079.84
2023-05-19T02:35:59.007Z,100082.38
2023-05-19T02:37:00.616Z,100081.44
2023-05-19T02:38:02.217Z,100074.59
2023-05-19T02:39:04.154Z,100079.75
2023-05-19T02:40:06.557Z,100076.91
2023-05-19T02:41:08.499Z,100086.16
2023-05-19T02:42:10.694Z,100083.44
2023-05-19T02:43:12.286Z,100078.38
2023-05-19T02:44:15.309Z,100083.53
2023-05-19T02:45:17.215Z,100082.06
2023-05-19T02:46:18.887Z,100083.22
2023-05-19T02:47:20.816Z,100080.50
2023-05-19T02:48:22.488Z,100090.91
2023-05-19T02:49:24.145Z,100085.75
2023-05-19T02:50:25.824Z,100084.56
2023-05-19T02:51:27.430Z,100080.41
2023-05-19T02:52:28.995Z,100072.09
2023-05-19T02:53:32.174Z,100079.97
2023-05-19T02:54:34.679Z,100080.94
2023-05-19T02:55:36.283Z,100080.28
2023-05-19T02:56:37.964Z,100079.56
2023-05-19T02:57:39.617Z,100073.13
2023-05-19T02:58:42.095Z,100078.19
2023-05-19T02:59:44.221Z,100074.09
2023-05-19T03:00:46.015Z,100076.81
2023-05-19T03:01:47.700Z,100070.72
2023-05-19T03:02:49.432Z,100082.19
2023-05-19T03:03:51.511Z,100088.50
2023-05-19T03:04:53.108Z,100085.94
2023-05-19T03:05:54.731Z,100079.44
2023-05-19T03:06:56.748Z,100078.41
2023-05-19T03:07:58.349Z,100082.69
2023-05-19T03:09:00.006Z,100074.59
2023-05-19T03:10:01.957Z,100079.75
2023-05-19T03:11:03.754Z,100079.63
2023-05-19T03:12:05.970Z,100084.06
2023-05-19T03:13:07.620Z,100082.69
2023-05-19T03:14:09.256Z,100084.38
2023-05-19T03:15:11.364Z,100080.94
2023-05-19T03:16:12.960Z,100084.59
2023-05-19T03:17:14.590Z,100095.09
2023-05-19T03:18:16.323Z,100091.63
2023-05-19T03:19:17.923Z,100079.03
2023-05-19T03:20:19.680Z,100082.38
2023-05-19T03:21:21.307Z,100083.44
2023-05-19T03:22:22.876Z,100077.97
2023-05-19T03:23:24.620Z,100087.00
2023-05-19T03:24:26.264Z,100082.59
2023-05-19T03:25:27.858Z,100085.09
2023-05-19T03:26:29.538Z,100089.31
2023-05-19T03:27:31.766Z,100093.72
2023-05-19T03:28:33.421Z,100094.88
2023-05-19T03:29:35.271Z,100091.22
2023-05-19T03:30:37.335Z,100094.88
2023-05-19T03:31:46.693Z,100103.00
2023-05-19T03:32:50.246Z,100097.94
2023-05-19T03:33:52.321Z,100088.28
2023-05-19T03:34:54.259Z,100090.69
2023-05-19T03:35:58.730Z,100092.47
2023-05-19T03:37:02.245Z,100095.94
2023-05-19T03:38:03.875Z,100100.16
2023-05-19T03:39:06.232Z,100108.88
2023-05-19T03:40:08.868Z,100108.03
2023-05-19T03:41:12.226Z,100111.16
2023-05-19T03:42:13.805Z,100099.53
2023-05-19T03:43:15.559Z,100098.47
2023-05-19T03:44:22.300Z,100100.34
2023-05-19T03:45:23.927Z,100101.94
2023-05-19T03:46:27.255Z,100103.38
2023-05-19T03:47:52.387Z,100099.53
2023-05-19T03:49:29.307Z,100111.81
2023-05-19T03:50:49.361Z,100102.16
2023-05-19T03:51:56.375Z,100100.47
2023-05-19T03:53:07.389Z,100105.00
2023-05-19T03:54:15.093Z,100099.59
2023-05-19T03:55:16.655Z,100102.38
2023-05-19T03:56:18.279Z,100103.41
2023-05-19T03:57:20.232Z,100110.34
2023-05-19T03:58:22.527Z,100116.31
2023-05-19T03:59:24.211Z,100101.94
2023-05-19T04:00:25.785Z,100104.47
2023-05-19T04:01:27.391Z,100109.50
2023-05-19T04:02:29.030Z,100106.00
2023-05-19T04:03:30.888Z,100107.09
2023-05-19T04:04:32.761Z,100104.34
2023-05-19T04:05:34.486Z,100094.78
2023-05-19T04:06:36.092Z,100092.59
2023-05-19T04:07:37.865Z,100097.84
2023-05-19T04:08:39.951Z,100084.47
2023-05-19T04:09:41.560Z,100104.66
2023-05-19T04:10:43.286Z,100102.69
2023-05-19T04:11:44.978Z,100100.06
2023-05-19T04:12:46.582Z,100100.78
2023-05-19T04:13:50.571Z,100104.03
2023-05-19T04:14:52.166Z,100102.25
2023-05-19T04:15:53.931Z,100108.03
2023-05-19T04:16:55.689Z,100096.25
2023-05-19T04:17:57.373Z,100106.13
2023-05-19T04:18:59.129Z,100107.63
2023-05-19T04:20:00.882Z,100103.41
2023-05-19T04:21:03.468Z,100106.13
2023-05-19T04:22:05.122Z,100100.16
2023-05-19T04:23:06.677Z,100100.78
2023-05-19T04:24:08.356Z,100102.47
2023-05-19T04:25:10.298Z,100102.25
2023-05-19T04:26:12.301Z,100112.75
2023-05-19T04:27:14.285Z,100104.88
2023-05-19T04:28:15.943Z,100093.31
2023-05-19T04:29:17.594Z,100100.66
2023-05-19T04:30:19.269Z,100100.34
2023-05-19T04:31:20.921Z,100102.03
2023-05-19T04:32:22.693Z,100094.97
2023-05-19T04:33:25.778Z,100091.22
2023-05-19T04:34:27.446Z,100091.00
2023-05-19T04:35:29.176Z,100079.97
2023-05-19T04:36:31.707Z,100085.00
2023-05-19T04:37:33.343Z,100079.44
2023-05-19T04:38:36.540Z,100083.44
2023-05-19T04:39:38.250Z,100083.34
2023-05-19T04:40:39.910Z,100084.69
2023-05-19T04:41:41.501Z,100093.63
2023-05-19T04:42:43.587Z,100095.41
2023-05-19T04:43:45.195Z,100089.53
2023-05-19T04:44:48.005Z,100087.41
2023-05-19T04:45:49.889Z,100097.13
2023-05-19T04:46:52.079Z,100094.66
2023-05-19T04:47:57.342Z,100091.94
2023-05-19T04:48:59.143Z,100083.03
2023-05-19T04:50:00.789Z,100084.47
2023-05-19T04:51:02.588Z,100087.19
2023-05-19T04:52:10.057Z,100086.06
2023-05-19T04:53:12.293Z,100087.19
2023-05-19T04:54:14.015Z,100084.56
2023-05-19T04:55:15.796Z,100095.41
2023-05-19T04:56:17.385Z,100098.75
2023-05-19T04:57:20.404Z,100103.28
2023-05-19T04:58:22.628Z,100107.69
2023-05-19T04:59:24.248Z,100113.59
2023-05-19T05:00:25.912Z,100111.09
2023-05-19T05:01:32.587Z,100113.38
2023-05-19T05:02:34.958Z,100121.88
2023-05-19T05:03:36.773Z,100124.19
2023-05-19T05:04:38.471Z,100119.56
2023-05-19T05:05:40.815Z,100117.03
2023-05-19T05:06:42.968Z,100112.53
2023-05-19T05:07:44.617Z,100114.09
2023-05-19T05:08:46.208Z,100112.19
2023-05-19T05:09:48.330Z,100109.69
2023-05-19T05:10:51.351Z,100102.94
2023-05-19T05:11:53.587Z,100110.31
2023-05-19T05:12:55.490Z,100102.22
2023-05-19T05:13:57.519Z,100102.75
2023-05-19T05:15:01.456Z,100114.00
2023-05-19T05:16:03.932Z,100105.16
2023-05-19T05:17:05.968Z,100106.66
2023-05-19T05:18:08.119Z,100107.47
2023-05-19T05:19:10.174Z,100113.34
2023-05-19T05:20:13.100Z,100115.75
2023-05-19T05:21:15.084Z,100111.38
2023-05-19T05:22:17.105Z,100108.41
2023-05-19T05:23:18.901Z,100118.81
2023-05-19T05:24:22.462Z,100116.41
2023-05-19T05:25:28.974Z,100116.53
2023-05-19T05:26:34.919Z,100120.06
2023-05-19T05:27:36.673Z,100120.94
2023-05-19T05:28:41.410Z,100115.44
2023-05-19T05:29:42.994Z,100122.19
2023-05-19T05:30:45.072Z,100119.44
2023-05-19T05:31:48.624Z,100125.56
2023-05-19T05:32:50.409Z,100118.38
2023-05-19T05:34:07.013Z,100124.38
2023-05-19T05:35:09.171Z,100121.53
2023-05-19T05:36:10.770Z,100126.06
2023-05-19T05:37:15.139Z,100127.00
2023-05-19T05:38:17.536Z,100122.47
2023-05-19T05:39:19.210Z,100125.94
2023-05-19T05:40:21.056Z,100119.03
2023-05-19T05:41:22.676Z,100132.03
2023-05-19T05:42:28.192Z,100122.38
2023-05-19T05:43:31.158Z,100121.31
2023-05-19T05:44:35.700Z,100125.00
2023-05-19T05:45:38.824Z,100127.00
2023-05-19T05:46:41.247Z,100118.47
2023-05-19T05:47:44.103Z,100123.66
2023-05-19T05:48:46.234Z,100122.19
2023-05-19T05:49:48.191Z,100122.06
2023-05-19T05:50:50.877Z,100118.94
2023-05-19T05:52:05.709Z,100122.28
2023-05-19T05:53:21.257Z,100124.59
2023-05-19T05:54:25.960Z,100119.34
2023-05-19T05:55:28.199Z,100126.28
2023-05-19T05:56:30.115Z,100132.03
2023-05-19T05:57:32.005Z,100121.41
2023-05-19T05:58:34.885Z,100123.81
2023-05-19T05:59:38.684Z,100130.56
2023-05-19T06:00:40.663Z,100128.75
2023-05-19T06:01:42.457Z,100131.63
2023-05-19T06:02:49.426Z,100130.25
2023-05-19T06:03:55.012Z,100125.09
2023-05-19T06:04:59.695Z,100128.84
2023-05-19T06:06:01.456Z,100129.63
2023-05-19T06:07:03.155Z,100128.34
2023-05-19T06:08:08.712Z,100135.16
2023-05-19T06:09:10.618Z,100132.94
2023-05-19T06:10:12.260Z,100133.69
2023-05-19T06:11:13.878Z,100135.38
2023-05-19T06:12:16.264Z,100130.84
2023-05-19T06:13:22.300Z,100137.50
2023-05-19T06:14:23.952Z,100134.53
2023-05-19T06:15:44.789Z,100130.44
2023-05-19T06:16:57.944Z,100134.53
2023-05-19T06:17:59.720Z,100125.78
2023-05-19T06:19:01.650Z,100140.28
2023-05-19T06:20:04.127Z,100134.09
2023-05-19T06:21:05.924Z,100141.16
2023-05-19T06:22:07.628Z,100139.91
2023-05-19T06:23:09.350Z,100132.84
2023-05-19T06:24:11.102Z,100141.16
2023-05-19T06:25:12.818Z,100140.59
2023-05-19T06:26:14.424Z,100134.38
2023-05-19T06:27:16.280Z,100140.25
2023-05-19T06:28:17.904Z,100144.66
2023-05-19T06:29:19.673Z,100143.00
2023-05-19T06:30:23.118Z,100139.41
2023-05-19T06:31:34.442Z,100146.03
2023-05-19T06:32:45.320Z,100134.66
2023-05-19T06:33:47.156Z,100145.28
2023-05-19T06:34:50.275Z,100136.69
2023-05-19T06:35:52.078Z,100139.06
2023-05-19T06:36:54.685Z,100135.50
2023-05-19T06:37:56.954Z,100140.66
2023-05-19T06:39:00.116Z,100136.00
2023-05-19T06:40:03.807Z,100134.44
2023-05-19T06:41:05.490Z,100137.69
2023-05-19T06:42:07.412Z,100133.38
2023-05-19T06:43:35.286Z,100140.81
2023-05-19T06:44:38.085Z,100137.22
2023-05-19T06:45:44.131Z,100143.97
2023-05-19T06:46:46.309Z,100147.09
2023-05-19T06:47:48.686Z,100145.81
2023-05-19T06:48:51.169Z,100140.44
2023-05-19T06:49:56.837Z,100148.09
2023-05-19T06:51:01.543Z,100150.97
2023-05-19T06:52:03.330Z,100147.63
2023-05-19T06:53:04.931Z,100149.41
2023-05-19T06:54:06.830Z,100148.09
2023-05-19T06:55:08.558Z,100148.00
2023-05-19T06:56:13.826Z,100143.22
2023-05-19T06:57:15.588Z,100144.31
2023-05-19T06:58:17.179Z,100145.66
2023-05-19T06:59:18.870Z,100144.59
2023-05-19T07:00:22.967Z,100148.81
2023-05-19T07:01:26.756Z,100147.72
2023-05-19T07:02:30.423Z,100149.53
2023-05-19T07:03:32.454Z,100149.28
2023-05-19T07:04:34.590Z,100144.72
2023-05-19T07:05:36.359Z,100142.09
2023-05-19T07:06:38.015Z,100140.81
2023-05-19T07:07:39.671Z,100152.91
2023-05-19T07:08:45.865Z,100144.91
2023-05-19T07:09:47.484Z,100136.63
2023-05-19T07:10:49.081Z,100140.72
2023-05-19T07:11:51.829Z,100137.94
2023-05-19T07:12:53.548Z,100141.19
2023-05-19T07:13:57.956Z,100131.97
2023-05-19T07:15:02.998Z,100131.25
2023-05-19T07:16:04.860Z,100135.78
2023-05-19T07:17:06.581Z,100139.88
2023-05-19T07:18:10.626Z,100140.47
2023-05-19T07:19:12.299Z,100139.63
2023-05-19T07:20:13.951Z,100144.41
2023-05-19T07:21:15.519Z,100146.34
2023-05-19T07:22:17.243Z,100141.06
2023-05-19T07:23:19.458Z,100146.94
2023-05-19T07:24:21.890Z,100141.09
2023-05-19T07:25:23.689Z,100142.78
2023-05-19T07:26:25.277Z,100142.06
2023-05-19T07:27:26.827Z,100148.50
2023-05-19T07:28:30.254Z,100139.63
2023-05-19T07:29:31.863Z,100144.56
2023-05-19T07:30:33.727Z,100146.22
2023-05-19T07:31:35.666Z,100141.91
2023-05-19T07:32:37.356Z,100147.06
2023-05-19T07:33:39.112Z,100138.44
2023-05-19T07:34:40.692Z,100140.47
2023-05-19T07:35:42.316Z,100144.91
2023-05-19T07:36:43.873Z,100146.81
2023-05-19T07:37:45.490Z,100146.81
2023-05-19T07:38:47.305Z,100151.75
2023-05-19T07:39:49.196Z,100146.81
2023-05-19T07:40:50.891Z,100149.44
2023-05-19T07:41:52.460Z,100146.09
2023-05-19T07:42:54.068Z,100146.34
2023-05-19T07:43:55.674Z,100147.78
2023-05-19T07:44:57.258Z,100148.38
2023-05-19T07:45:58.895Z,100155.09
2023-05-19T07:47:01.279Z,100147.78
2023-05-19T07:48:03.287Z,100150.53
2023-05-19T07:49:04.894Z,100147.06
2023-05-19T07:50:07.436Z,100152.09
2023-05-19T07:51:09.030Z,100154.00
2023-05-19T07:52:10.683Z,100153.19
2023-05-19T07:53:12.239Z,100147.06
2023-05-19T07:54:13.829Z,100152.22
2023-05-19T07:55:15.434Z,100150.53
2023-05-19T07:56:17.085Z,100150.53
2023-05-19T07:57:18.967Z,100148.50
2023-05-19T07:58:20.500Z,100149.34
2023-05-19T07:59:22.035Z,100153.19
2023-05-19T08:00:23.663Z,100154.84
2023-05-19T08:01:25.224Z,100157.59
2023-05-19T08:02:26.943Z,100156.63
2023-05-19T08:03:29.517Z,100156.53
2023-05-19T08:04:31.248Z,100155.34
2023-05-19T08:05:34.116Z,100164.69
2023-05-19T08:06:35.698Z,100159.66
2023-05-19T08:07:37.564Z,100168.41
2023-05-19T08:08:39.167Z,100156.19
2023-05-19T08:09:40.758Z,100161.94
2023-05-19T08:10:42.946Z,100161.47
2023-05-19T08:11:44.516Z,100163.88
2023-05-19T08:12:46.670Z,100159.31
2023-05-19T08:13:48.470Z,100158.25
2023-05-19T08:14:50.042Z,100157.16
2023-05-19T08:15:54.247Z,100160.16
2023-05-19T08:16:55.827Z,100157.75
2023-05-19T08:17:57.387Z,100158.59
2023-05-19T08:18:59.014Z,100160.75
2023-05-19T08:20:00.673Z,100154.53
2023-05-19T08:21:02.226Z,100158.47
2023-05-19T08:22:03.929Z,100159.81
2023-05-19T08:23:05.562Z,100159.59
2023-05-19T08:24:07.120Z,100157.78
2023-05-19T08:25:09.055Z,100156.81
2023-05-19T08:26:10.728Z,100159.44
2023-05-19T08:27:12.425Z,100160.66
2023-05-19T08:28:14.228Z,100153.56
2023-05-19T08:29:15.830Z,100156.81
2023-05-19T08:30:17.410Z,100159.44
2023-05-19T08:31:19.284Z,100162.00
2023-05-19T08:32:20.938Z,100158.84
2023-05-19T08:33:22.547Z,100156.94
2023-05-19T08:34:24.505Z,100165.56
2023-05-19T08:35:26.117Z,100163.69
2023-05-19T08:36:27.700Z,100154.81
2023-05-19T08:37:29.254Z,100156.38
2023-05-19T08:38:30.841Z,100166.56
2023-05-19T08:39:32.416Z,100158.66
2023-05-19T08:40:37.391Z,100160.69
2023-05-19T08:41:38.989Z,100159.03
2023-05-19T08:42:40.593Z,100154.34
2023-05-19T08:43:42.510Z,100154.94
2023-05-19T08:44:44.153Z,100147.97
2023-05-19T08:45:45.920Z,100153.25
2023-05-19T08:46:47.950Z,100156.75
2023-05-19T08:47:51.082Z,100164.50
2023-05-19T08:49:01.927Z,100160.00
2023-05-19T08:50:08.002Z,100158.16
2023-05-19T08:51:46.840Z,100156.25
2023-05-19T08:53:04.787Z,100162.47
2023-05-19T08:54:14.588Z,100153.38
2023-05-19T08:55:42.657Z,100155.19
2023-05-19T08:56:45.257Z,100159.75
2023-05-19T08:57:48.145Z,100156.38
2023-05-19T08:58:51.353Z,100156.25
2023-05-19T08:59:54.518Z,100160.19
2023-05-19T09:00:57.855Z,100156.59
2023-05-19T09:02:00.109Z,100161.78
2023-05-19T09:03:17.501Z,100165.22
2023-05-19T09:04:26.508Z,100157.09
2023-05-19T09:05:29.480Z,100165.22
2023-05-19T09:06:31.308Z,100160.19
2023-05-19T09:07:33.210Z,100161.88
2023-05-19T09:08:35.161Z,100156.38
2023-05-19T09:09:36.796Z,100156.97
2023-05-19T09:10:38.353Z,100156.72
2023-05-19T09:11:39.971Z,100154.91
2023-05-19T09:12:46.834Z,100151.56
2023-05-19T09:13:48.451Z,100159.94
2023-05-19T09:14:50.156Z,100155.41
2023-05-19T09:15:53.306Z,100160.78
2023-05-19T09:16:55.178Z,100162.22
2023-05-19T09:18:13.683Z,100158.16
2023-05-19T09:19:15.270Z,100156.81
2023-05-19T09:20:17.298Z,100157.97
2023-05-19T09:21:19.010Z,100154.97
2023-05-19T09:22:20.583Z,100157.75
2023-05-19T09:23:23.086Z,100160.25
2023-05-19T09:24:25.970Z,100157.38
2023-05-19T09:25:27.652Z,100157.72
2023-05-19T09:26:40.637Z,100165.50
2023-05-19T09:27:42.185Z,100157.59
2023-05-19T09:28:43.713Z,100151.13
2023-05-19T09:29:45.339Z,100148.47
2023-05-19T09:30:46.965Z,100156.13
2023-05-19T09:31:56.276Z,100149.88
2023-05-19T09:32:59.067Z,100149.41
2023-05-19T09:34:01.478Z,100156.41
2023-05-19T09:35:03.732Z,100155.44
2023-05-19T09:36:06.355Z,100156.72
2023-05-19T09:37:08.045Z,100153.84
2023-05-19T09:38:09.619Z,100151.06
2023-05-19T09:39:18.332Z,100154.44
2023-05-19T09:40:19.938Z,100153.69
2023-05-19T09:41:21.866Z,100153.69
2023-05-19T09:42:27.428Z,100152.41
2023-05-19T09:43:33.851Z,100152.41
2023-05-19T09:44:35.571Z,100152.41
2023-05-19T09:45:37.204Z,100154.09
2023-05-19T09:46:38.836Z,100152.41
2023-05-19T09:47:41.490Z,100146.41
2023-05-19T09:48:43.144Z,100154.66
2023-05-19T09:49:47.771Z,100154.66
2023-05-19T09:50:49.526Z,100149.84
2023-05-19T09:52:02.578Z,100149.59
2023-05-19T09:53:04.297Z,100148.63
2023-05-19T09:54:05.934Z,100147.47
2023-05-19T09:55:16.614Z,100149.97
2023-05-19T09:56:19.272Z,100151.91
2023-05-19T09:57:26.405Z,100148.81
2023-05-19T09:58:32.236Z,100150.97
2023-05-19T09:59:34.429Z,100151.56
2023-05-19T10:00:36.046Z,100147.97
2023-05-19T10:01:38.537Z,100152.28
2023-05-19T10:02:45.368Z,100150.16
2023-05-19T10:03:47.068Z,100143.34
2023-05-19T10:04:49.021Z,100140.81
2023-05-19T10:05:52.949Z,100142.38
2023-05-19T10:06:56.415Z,100140.06
2023-05-19T10:07:58.179Z,100147.88
2023-05-19T10:09:00.300Z,100150.16
2023-05-19T10:10:02.773Z,100148.06
2023-05-19T10:11:05.568Z,100144.59
2023-05-19T10:12:08.958Z,100142.94
2023-05-19T10:13:11.944Z,100138.94
2023-05-19T10:14:13.655Z,100144.94
2023-05-19T10:15:16.953Z,100145.75
2023-05-19T10:16:19.833Z,100142.03
2023-05-19T10:17:22.294Z,100143.34
2023-05-19T10:18:26.061Z,100139.28
2023-05-19T10:19:28.742Z,100142.63
2023-05-19T10:20:31.415Z,100144.56
2023-05-19T10:21:33.143Z,100147.81
2023-05-19T10:22:34.756Z,100144.91
2023-05-19T10:23:36.545Z,100146.47
2023-05-19T10:24:38.102Z,100143.81
2023-05-19T10:25:40.223Z,100146.19
2023-05-19T10:26:45.495Z,100139.94
2023-05-19T10:28:17.338Z,100147.63
2023-05-19T10:29:23.811Z,100144.72
2023-05-19T10:30:29.690Z,100139.56
2023-05-19T10:31:34.120Z,100146.00
2023-05-19T10:32:38.169Z,100146.28
2023-05-19T10:34:17.115Z,100143.13
2023-05-19T10:35:31.991Z,100148.84
2023-05-19T10:36:37.055Z,100148.59
2023-05-19T10:38:13.864Z,100147.38
2023-05-19T10:39:32.824Z,100146.66
2023-05-19T10:40:43.756Z,100139.00
2023-05-19T10:42:10.343Z,100143.06
2023-05-19T10:43:36.047Z,100146.81
2023-05-19T10:44:46.440Z,100137.19
2023-05-19T10:45:51.071Z,100142.97
2023-05-19T10:46:54.350Z,100137.47
2023-05-19T10:47:57.650Z,100134.09
2023-05-19T10:48:59.475Z,100136.63
2023-05-19T10:50:01.227Z,100144.66
2023-05-19T10:51:03.591Z,100141.78
2023-05-19T10:52:19.884Z,100140.81
2023-05-19T10:53:21.464Z,100134.28
2023-05-19T10:54:44.606Z,100140.78
2023-05-19T10:55:56.032Z,100127.16
2023-05-19T10:56:57.761Z,100128.59
2023-05-19T10:57:59.296Z,100132.91
2023-05-19T10:59:01.448Z,100129.78
2023-05-19T11:00:24.473Z,100137.72
2023-05-19T11:01:36.287Z,100137.59
2023-05-19T11:02:40.357Z,100134.28
2023-05-19T11:03:49.112Z,100140.16
2023-05-19T11:04:51.882Z,100138.25
2023-05-19T11:05:53.723Z,100134.25
2023-05-19T11:06:55.401Z,100139.97
2023-05-19T11:07:59.456Z,100141.28
2023-05-19T11:09:14.796Z,100141.66
2023-05-19T11:10:23.255Z,100134.38
2023-05-19T11:11:24.923Z,100131.50
2023-05-19T11:12:26.552Z,100146.13
2023-05-19T11:13:28.621Z,100137.91
2023-05-19T11:14:30.318Z,100134.31
2023-05-19T11:15:35.710Z,100134.78
2023-05-19T11:16:37.470Z,100139.78
2023-05-19T11:17:41.085Z,100136.44
2023-05-19T11:18:47.363Z,100139.66
2023-05-19T11:19:56.956Z,100146.09
2023-05-19T11:21:00.970Z,100142.34
2023-05-19T11:22:10.026Z,100149.19
2023-05-19T11:23:16.083Z,100138.44
2023-05-19T11:24:46.202Z,100138.88
2023-05-19T11:25:49.843Z,100135.97
2023-05-19T11:26:54.642Z,100138.47
2023-05-19T11:27:56.796Z,100138.94
2023-05-19T11:28:58.462Z,100143.56
2023-05-19T11:30:06.192Z,100139.53
2023-05-19T11:31:09.412Z,100138.41
2023-05-19T11:32:12.743Z,100136.91
2023-05-19T11:33:14.790Z,100142.97
2023-05-19T11:34:16.758Z,100135.63
2023-05-19T11:35:19.398Z,100140.50
2023-05-19T11:36:21.942Z,100135.06
2023-05-19T11:37:23.664Z,100136.31
2023-05-19T11:38:26.422Z,100134.94
2023-05-19T11:39:29.063Z,100131.91
2023-05-19T11:40:30.752Z,100125.38
2023-05-19T11:41:32.328Z,100126.63
2023-05-19T11:42:35.444Z,100124.56
2023-05-19T11:43:37.039Z,100132.22
2023-05-19T11:44:39.024Z,100131.41
2023-05-19T11:45:40.604Z,100131.25
2023-05-19T11:46:43.499Z,100125.84
2023-05-19T11:48:01.223Z,100128.50
2023-05-19T11:49:05.330Z,100127.22
2023-05-19T11:50:07.313Z,100132.81
2023-05-19T11:51:08.965Z,100132.53
2023-05-19T11:52:10.973Z,100133.09
2023-05-19T11:53:13.574Z,100126.72
2023-05-19T11:54:15.165Z,100124.31
2023-05-19T11:55:20.283Z,100125.03
2023-05-19T11:56:21.909Z,100128.50
2023-05-19T11:57:23.488Z,100124.59
2023-05-19T11:58:25.709Z,100129.66
2023-05-19T11:59:31.734Z,100122.69
2023-05-19T12:00:37.760Z,100125.75
2023-05-19T12:01:39.329Z,100128.25
2023-05-19T12:02:40.962Z,100121.59
2023-05-19T12:03:42.677Z,100119.63
2023-05-19T12:04:44.483Z,100121.31
2023-05-19T12:05:48.772Z,100120.47
2023-05-19T12:06:50.933Z,100118.38
2023-05-19T12:07:52.984Z,100121.31
2023-05-19T12:08:54.916Z,100113.78
2023-05-19T12:09:56.660Z,100125.19
2023-05-19T12:10:58.309Z,100126.31
2023-05-19T12:12:00.881Z,100118.78